sensor_id;sensor_type;location;lat;lon;timestamp;P1;durP1;ratioP1;P2;durP2;ratioP2
18090;SDS011;9172;49.948;9.208;2023-08-01T00:01:06;4.20;;;2.27;;
18090;SDS011;9172;49.948;9.208;2023-08-01T00:03:34;4.37;;;2.30;;
18090;SDS011;9172;49.948;9.208;2023-08-01T00:06:03;6.53;;;2.80;;
18090;SDS011;9172;49.948;9.208;2023-08-01T00:08:32;4.60;;;2.03;;
18090;SDS011;9172;49.948;9.208;2023-08-01T00:11:02;9.07;;;3.00;;
18090;SDS011;9172;49.948;9.208;2023-08-01T00:13:30;5.77;;;2.47;;
18090;SDS011;9172;49.948;9.208;2023-08-01T00:16:00;6.43;;;2.80;;
18090;SDS011;9172;49.948;9.208;2023-08-01T00:18:28;5.40;;;2.33;;
18090;SDS011;9172;49.948;9.208;2023-08-01T00:54:42;8.67;;;2.80;;
18090;SDS011;9172;49.948;9.208;2023-08-01T00:57:10;5.63;;;2.53;;
18090;SDS011;9172;49.948;9.208;2023-08-01T00:59:39;3.80;;;2.37;;
18090;SDS011;9172;49.948;9.208;2023-08-01T01:02:09;4.33;;;2.40;;
18090;SDS011;9172;49.948;9.208;2023-08-01T01:04:38;11.20;;;3.00;;
18090;SDS011;9172;49.948;9.208;2023-08-01T01:07:08;8.20;;;2.60;;
18090;SDS011;9172;49.948;9.208;2023-08-01T01:09:37;6.60;;;2.80;;
18090;SDS011;9172;49.948;9.208;2023-08-01T01:12:06;5.53;;;2.60;;
18090;SDS011;9172;49.948;9.208;2023-08-01T01:14:35;6.10;;;3.10;;
18090;SDS011;9172;49.948;9.208;2023-08-01T01:17:04;6.10;;;2.83;;
18090;SDS011;9172;49.948;9.208;2023-08-01T01:19:33;6.27;;;2.70;;
18090;SDS011;9172;49.948;9.208;2023-08-01T01:22:02;4.87;;;2.67;;
18090;SDS011;9172;49.948;9.208;2023-08-01T01:24:33;3.80;;;2.07;;
18090;SDS011;9172;49.948;9.208;2023-08-01T01:27:03;4.83;;;2.50;;
18090;SDS011;9172;49.948;9.208;2023-08-01T01:29:33;7.43;;;2.97;;
18090;SDS011;9172;49.948;9.208;2023-08-01T01:32:03;6.07;;;3.00;;
18090;SDS011;9172;49.948;9.208;2023-08-01T01:34:33;6.83;;;2.77;;
18090;SDS011;9172;49.948;9.208;2023-08-01T01:37:02;6.50;;;3.03;;
18090;SDS011;9172;49.948;9.208;2023-08-01T01:39:31;6.90;;;2.90;;
18090;SDS011;9172;49.948;9.208;2023-08-01T01:42:01;4.67;;;2.50;;
18090;SDS011;9172;49.948;9.208;2023-08-01T01:44:31;5.47;;;2.80;;
18090;SDS011;9172;49.948;9.208;2023-08-01T01:47:00;6.17;;;3.00;;
18090;SDS011;9172;49.948;9.208;2023-08-01T01:49:31;4.57;;;2.47;;
18090;SDS011;9172;49.948;9.208;2023-08-01T01:51:59;6.87;;;2.97;;
18090;SDS011;9172;49.948;9.208;2023-08-01T01:54:29;6.47;;;3.17;;
18090;SDS011;9172;49.948;9.208;2023-08-01T01:56:57;5.43;;;3.03;;
18090;SDS011;9172;49.948;9.208;2023-08-01T01:59:26;7.57;;;3.40;;
18090;SDS011;9172;49.948;9.208;2023-08-01T02:01:55;7.10;;;3.10;;
18090;SDS011;9172;49.948;9.208;2023-08-01T02:04:24;5.37;;;2.80;;
18090;SDS011;9172;49.948;9.208;2023-08-01T02:06:53;7.53;;;3.10;;
18090;SDS011;9172;49.948;9.208;2023-08-01T02:09:22;6.03;;;2.90;;
18090;SDS011;9172;49.948;9.208;2023-08-01T02:11:52;6.40;;;2.83;;
18090;SDS011;9172;49.948;9.208;2023-08-01T02:14:21;5.50;;;2.90;;
18090;SDS011;9172;49.948;9.208;2023-08-01T02:16:51;6.23;;;2.70;;
18090;SDS011;9172;49.948;9.208;2023-08-01T02:19:20;6.03;;;2.90;;
18090;SDS011;9172;49.948;9.208;2023-08-01T02:21:49;4.93;;;2.40;;
18090;SDS011;9172;49.948;9.208;2023-08-01T02:24:18;6.40;;;2.70;;
18090;SDS011;9172;49.948;9.208;2023-08-01T02:26:47;4.97;;;2.87;;
18090;SDS011;9172;49.948;9.208;2023-08-01T02:29:17;7.00;;;3.47;;
18090;SDS011;9172;49.948;9.208;2023-08-01T02:31:46;8.20;;;3.37;;
18090;SDS011;9172;49.948;9.208;2023-08-01T02:34:15;5.33;;;2.80;;
18090;SDS011;9172;49.948;9.208;2023-08-01T02:36:43;4.23;;;2.40;;
18090;SDS011;9172;49.948;9.208;2023-08-01T02:39:12;6.00;;;3.30;;
18090;SDS011;9172;49.948;9.208;2023-08-01T02:41:41;8.77;;;2.50;;
18090;SDS011;9172;49.948;9.208;2023-08-01T02:44:11;7.53;;;2.90;;
18090;SDS011;9172;49.948;9.208;2023-08-01T02:46:40;7.23;;;2.97;;
18090;SDS011;9172;49.948;9.208;2023-08-01T02:49:09;6.53;;;2.93;;
18090;SDS011;9172;49.948;9.208;2023-08-01T02:51:38;5.93;;;2.60;;
18090;SDS011;9172;49.948;9.208;2023-08-01T02:54:07;6.70;;;3.20;;
18090;SDS011;9172;49.948;9.208;2023-08-01T02:56:35;7.47;;;3.17;;
18090;SDS011;9172;49.948;9.208;2023-08-01T02:59:07;8.07;;;3.07;;
18090;SDS011;9172;49.948;9.208;2023-08-01T03:01:36;4.70;;;2.77;;
18090;SDS011;9172;49.948;9.208;2023-08-01T03:04:06;5.60;;;3.20;;
18090;SDS011;9172;49.948;9.208;2023-08-01T03:06:35;6.67;;;3.10;;
18090;SDS011;9172;49.948;9.208;2023-08-01T03:09:04;6.20;;;2.37;;
18090;SDS011;9172;49.948;9.208;2023-08-01T03:11:35;3.90;;;2.40;;
18090;SDS011;9172;49.948;9.208;2023-08-01T03:14:04;3.47;;;1.80;;
18090;SDS011;9172;49.948;9.208;2023-08-01T03:16:33;5.83;;;2.70;;
18090;SDS011;9172;49.948;9.208;2023-08-01T03:19:02;7.67;;;3.00;;
18090;SDS011;9172;49.948;9.208;2023-08-01T03:21:31;5.07;;;2.37;;
18090;SDS011;9172;49.948;9.208;2023-08-01T03:24:00;3.93;;;1.97;;
18090;SDS011;9172;49.948;9.208;2023-08-01T03:26:32;3.97;;;1.93;;
18090;SDS011;9172;49.948;9.208;2023-08-01T03:29:01;4.70;;;2.27;;
18090;SDS011;9172;49.948;9.208;2023-08-01T03:31:32;4.83;;;2.20;;
18090;SDS011;9172;49.948;9.208;2023-08-01T03:34:01;3.93;;;2.17;;
18090;SDS011;9172;49.948;9.208;2023-08-01T03:36:31;4.10;;;2.17;;
18090;SDS011;9172;49.948;9.208;2023-08-01T03:39:00;6.33;;;2.63;;
18090;SDS011;9172;49.948;9.208;2023-08-01T03:41:30;3.60;;;2.30;;
18090;SDS011;9172;49.948;9.208;2023-08-01T03:44:00;3.83;;;2.00;;
18090;SDS011;9172;49.948;9.208;2023-08-01T03:46:29;10.17;;;2.30;;
18090;SDS011;9172;49.948;9.208;2023-08-01T03:48:58;3.27;;;2.00;;
18090;SDS011;9172;49.948;9.208;2023-08-01T03:51:29;4.13;;;2.00;;
18090;SDS011;9172;49.948;9.208;2023-08-01T03:53:59;3.87;;;2.10;;
18090;SDS011;9172;49.948;9.208;2023-08-01T03:56:28;4.00;;;2.33;;
18090;SDS011;9172;49.948;9.208;2023-08-01T03:58:57;3.97;;;2.40;;
18090;SDS011;9172;49.948;9.208;2023-08-01T04:01:25;6.90;;;2.07;;
18090;SDS011;9172;49.948;9.208;2023-08-01T04:03:54;5.90;;;2.10;;
18090;SDS011;9172;49.948;9.208;2023-08-01T04:06:23;6.47;;;2.00;;
18090;SDS011;9172;49.948;9.208;2023-08-01T04:08:53;3.10;;;2.00;;
18090;SDS011;9172;49.948;9.208;2023-08-01T04:11:22;4.77;;;2.13;;
18090;SDS011;9172;49.948;9.208;2023-08-01T04:13:52;4.17;;;1.87;;
18090;SDS011;9172;49.948;9.208;2023-08-01T04:16:21;3.80;;;2.20;;
18090;SDS011;9172;49.948;9.208;2023-08-01T04:18:50;6.27;;;2.17;;
18090;SDS011;9172;49.948;9.208;2023-08-01T04:21:19;4.73;;;2.07;;
18090;SDS011;9172;49.948;9.208;2023-08-01T04:23:47;3.50;;;2.07;;
18090;SDS011;9172;49.948;9.208;2023-08-01T04:26:17;5.00;;;2.83;;
18090;SDS011;9172;49.948;9.208;2023-08-01T04:28:46;3.17;;;2.10;;
18090;SDS011;9172;49.948;9.208;2023-08-01T04:31:15;5.70;;;2.00;;
18090;SDS011;9172;49.948;9.208;2023-08-01T04:33:44;5.47;;;2.13;;
18090;SDS011;9172;49.948;9.208;2023-08-01T04:36:12;2.90;;;1.80;;
18090;SDS011;9172;49.948;9.208;2023-08-01T04:38:42;4.10;;;2.10;;
18090;SDS011;9172;49.948;9.208;2023-08-01T04:41:11;4.83;;;1.97;;
18090;SDS011;9172;49.948;9.208;2023-08-01T04:43:40;3.20;;;1.97;;
18090;SDS011;9172;49.948;9.208;2023-08-01T04:46:09;4.63;;;2.00;;
18090;SDS011;9172;49.948;9.208;2023-08-01T04:48:40;5.03;;;2.30;;
18090;SDS011;9172;49.948;9.208;2023-08-01T04:51:09;9.07;;;2.10;;
18090;SDS011;9172;49.948;9.208;2023-08-01T04:53:40;4.03;;;2.20;;
18090;SDS011;9172;49.948;9.208;2023-08-01T04:56:09;3.30;;;1.60;;
18090;SDS011;9172;49.948;9.208;2023-08-01T04:58:39;3.67;;;2.00;;
18090;SDS011;9172;49.948;9.208;2023-08-01T05:01:07;3.47;;;1.87;;
18090;SDS011;9172;49.948;9.208;2023-08-01T05:03:36;6.23;;;2.37;;
18090;SDS011;9172;49.948;9.208;2023-08-01T05:06:05;4.67;;;1.87;;
18090;SDS011;9172;49.948;9.208;2023-08-01T05:08:36;4.13;;;1.83;;
18090;SDS011;9172;49.948;9.208;2023-08-01T05:11:04;5.73;;;2.20;;
18090;SDS011;9172;49.948;9.208;2023-08-01T05:13:34;3.97;;;2.00;;
18090;SDS011;9172;49.948;9.208;2023-08-01T05:16:03;3.10;;;2.10;;
18090;SDS011;9172;49.948;9.208;2023-08-01T05:18:33;5.63;;;2.20;;
18090;SDS011;9172;49.948;9.208;2023-08-01T05:21:03;3.80;;;1.77;;
18090;SDS011;9172;49.948;9.208;2023-08-01T05:23:32;4.87;;;2.20;;
18090;SDS011;9172;49.948;9.208;2023-08-01T05:26:01;4.10;;;1.97;;
18090;SDS011;9172;49.948;9.208;2023-08-01T05:28:30;2.87;;;1.97;;
18090;SDS011;9172;49.948;9.208;2023-08-01T05:30:59;5.37;;;1.93;;
18090;SDS011;9172;49.948;9.208;2023-08-01T05:33:29;4.03;;;1.70;;
18090;SDS011;9172;49.948;9.208;2023-08-01T05:35:58;4.83;;;2.07;;
18090;SDS011;9172;49.948;9.208;2023-08-01T05:38:27;4.93;;;2.20;;
18090;SDS011;9172;49.948;9.208;2023-08-01T05:40:56;2.63;;;1.57;;
18090;SDS011;9172;49.948;9.208;2023-08-01T05:43:26;4.87;;;2.00;;
18090;SDS011;9172;49.948;9.208;2023-08-01T05:45:55;3.77;;;1.90;;
18090;SDS011;9172;49.948;9.208;2023-08-01T05:48:24;8.67;;;2.77;;
18090;SDS011;9172;49.948;9.208;2023-08-01T05:50:53;4.93;;;2.20;;
18090;SDS011;9172;49.948;9.208;2023-08-01T05:53:21;6.43;;;1.70;;
18090;SDS011;9172;49.948;9.208;2023-08-01T05:55:50;3.90;;;1.63;;
18090;SDS011;9172;49.948;9.208;2023-08-01T05:58:19;3.17;;;1.53;;
18090;SDS011;9172;49.948;9.208;2023-08-01T06:00:48;3.53;;;1.53;;
18090;SDS011;9172;49.948;9.208;2023-08-01T06:03:18;4.30;;;1.77;;
18090;SDS011;9172;49.948;9.208;2023-08-01T06:05:47;3.03;;;1.70;;
18090;SDS011;9172;49.948;9.208;2023-08-01T06:08:16;5.30;;;1.93;;
18090;SDS011;9172;49.948;9.208;2023-08-01T06:10:45;4.80;;;1.97;;
18090;SDS011;9172;49.948;9.208;2023-08-01T06:13:14;2.43;;;1.40;;
18090;SDS011;9172;49.948;9.208;2023-08-01T06:15:42;3.23;;;1.70;;
18090;SDS011;9172;49.948;9.208;2023-08-01T06:18:11;2.40;;;1.60;;
18090;SDS011;9172;49.948;9.208;2023-08-01T06:20:39;5.17;;;1.60;;
18090;SDS011;9172;49.948;9.208;2023-08-01T06:23:09;2.40;;;1.20;;
18090;SDS011;9172;49.948;9.208;2023-08-01T06:25:37;2.40;;;1.37;;
18090;SDS011;9172;49.948;9.208;2023-08-01T06:28:06;2.13;;;1.27;;
18090;SDS011;9172;49.948;9.208;2023-08-01T06:30:35;3.17;;;1.17;;
18090;SDS011;9172;49.948;9.208;2023-08-01T06:33:05;2.03;;;1.07;;
18090;SDS011;9172;49.948;9.208;2023-08-01T06:35:34;3.70;;;1.30;;
18090;SDS011;9172;49.948;9.208;2023-08-01T06:38:02;1.60;;;1.10;;
18090;SDS011;9172;49.948;9.208;2023-08-01T06:40:32;3.27;;;1.70;;
18090;SDS011;9172;49.948;9.208;2023-08-01T06:43:01;1.63;;;1.10;;
18090;SDS011;9172;49.948;9.208;2023-08-01T06:45:30;3.70;;;1.50;;
18090;SDS011;9172;49.948;9.208;2023-08-01T06:47:59;3.40;;;1.40;;
18090;SDS011;9172;49.948;9.208;2023-08-01T06:50:28;2.63;;;1.30;;
18090;SDS011;9172;49.948;9.208;2023-08-01T06:52:57;1.83;;;1.23;;
18090;SDS011;9172;49.948;9.208;2023-08-01T06:55:27;5.20;;;1.90;;
18090;SDS011;9172;49.948;9.208;2023-08-01T06:57:55;2.57;;;1.47;;
18090;SDS011;9172;49.948;9.208;2023-08-01T07:00:25;2.97;;;1.30;;
18090;SDS011;9172;49.948;9.208;2023-08-01T07:02:54;2.03;;;1.20;;
18090;SDS011;9172;49.948;9.208;2023-08-01T07:05:23;3.70;;;1.40;;
18090;SDS011;9172;49.948;9.208;2023-08-01T07:07:52;2.00;;;1.30;;
18090;SDS011;9172;49.948;9.208;2023-08-01T07:10:21;2.93;;;1.60;;
18090;SDS011;9172;49.948;9.208;2023-08-01T07:12:49;5.43;;;1.60;;
18090;SDS011;9172;49.948;9.208;2023-08-01T07:15:18;3.07;;;1.80;;
18090;SDS011;9172;49.948;9.208;2023-08-01T07:17:46;3.63;;;1.57;;
18090;SDS011;9172;49.948;9.208;2023-08-01T07:20:16;1.97;;;1.13;;
18090;SDS011;9172;49.948;9.208;2023-08-01T07:22:46;2.30;;;1.20;;
18090;SDS011;9172;49.948;9.208;2023-08-01T07:25:15;2.67;;;1.23;;
18090;SDS011;9172;49.948;9.208;2023-08-01T07:27:45;2.13;;;1.27;;
18090;SDS011;9172;49.948;9.208;2023-08-01T07:30:14;2.67;;;1.73;;
18090;SDS011;9172;49.948;9.208;2023-08-01T07:32:42;2.00;;;1.20;;
18090;SDS011;9172;49.948;9.208;2023-08-01T07:35:14;2.43;;;1.30;;
18090;SDS011;9172;49.948;9.208;2023-08-01T07:37:44;3.17;;;1.37;;
18090;SDS011;9172;49.948;9.208;2023-08-01T07:40:12;5.37;;;1.57;;
18090;SDS011;9172;49.948;9.208;2023-08-01T07:42:41;3.53;;;2.10;;
18090;SDS011;9172;49.948;9.208;2023-08-01T07:45:10;2.10;;;1.40;;
18090;SDS011;9172;49.948;9.208;2023-08-01T07:47:39;3.77;;;1.43;;
18090;SDS011;9172;49.948;9.208;2023-08-01T07:50:08;5.00;;;1.30;;
18090;SDS011;9172;49.948;9.208;2023-08-01T07:52:37;3.27;;;1.40;;
18090;SDS011;9172;49.948;9.208;2023-08-01T07:55:06;3.10;;;1.27;;
18090;SDS011;9172;49.948;9.208;2023-08-01T07:57:35;1.80;;;0.90;;
18090;SDS011;9172;49.948;9.208;2023-08-01T08:00:05;0.87;;;0.60;;
18090;SDS011;9172;49.948;9.208;2023-08-01T08:02:36;0.50;;;0.50;;
18090;SDS011;9172;49.948;9.208;2023-08-01T08:05:06;2.93;;;0.40;;
18090;SDS011;9172;49.948;9.208;2023-08-01T08:07:35;1.07;;;0.70;;
18090;SDS011;9172;49.948;9.208;2023-08-01T08:10:05;1.10;;;0.70;;
18090;SDS011;9172;49.948;9.208;2023-08-01T08:12:35;1.17;;;0.80;;
18090;SDS011;9172;49.948;9.208;2023-08-01T08:15:04;1.27;;;0.63;;
18090;SDS011;9172;49.948;9.208;2023-08-01T08:17:35;0.67;;;0.60;;
18090;SDS011;9172;49.948;9.208;2023-08-01T08:20:05;2.43;;;0.80;;
18090;SDS011;9172;49.948;9.208;2023-08-01T08:22:34;1.17;;;0.80;;
18090;SDS011;9172;49.948;9.208;2023-08-01T08:25:03;1.20;;;0.80;;
18090;SDS011;9172;49.948;9.208;2023-08-01T08:27:33;3.13;;;0.60;;
18090;SDS011;9172;49.948;9.208;2023-08-01T08:30:02;2.63;;;0.90;;
18090;SDS011;9172;49.948;9.208;2023-08-01T08:32:32;1.57;;;0.70;;
18090;SDS011;9172;49.948;9.208;2023-08-01T08:35:03;1.50;;;0.80;;
18090;SDS011;9172;49.948;9.208;2023-08-01T08:37:33;1.20;;;0.60;;
18090;SDS011;9172;49.948;9.208;2023-08-01T08:40:03;0.70;;;0.60;;
18090;SDS011;9172;49.948;9.208;2023-08-01T08:42:34;2.23;;;0.77;;
18090;SDS011;9172;49.948;9.208;2023-08-01T08:45:05;1.50;;;0.90;;
18090;SDS011;9172;49.948;9.208;2023-08-01T08:47:35;2.50;;;0.70;;
18090;SDS011;9172;49.948;9.208;2023-08-01T08:50:06;1.20;;;0.77;;
18090;SDS011;9172;49.948;9.208;2023-08-01T08:52:35;0.60;;;0.53;;
18090;SDS011;9172;49.948;9.208;2023-08-01T08:55:05;0.90;;;0.83;;
18090;SDS011;9172;49.948;9.208;2023-08-01T08:57:35;1.87;;;0.80;;
18090;SDS011;9172;49.948;9.208;2023-08-01T09:00:06;1.93;;;0.97;;
18090;SDS011;9172;49.948;9.208;2023-08-01T09:02:35;4.43;;;0.90;;
18090;SDS011;9172;49.948;9.208;2023-08-01T09:05:04;1.43;;;0.67;;
18090;SDS011;9172;49.948;9.208;2023-08-01T09:07:33;1.37;;;0.70;;
18090;SDS011;9172;49.948;9.208;2023-08-01T09:10:06;1.67;;;0.80;;
18090;SDS011;9172;49.948;9.208;2023-08-01T09:12:36;1.57;;;0.60;;
18090;SDS011;9172;49.948;9.208;2023-08-01T09:15:06;1.63;;;0.90;;
18090;SDS011;9172;49.948;9.208;2023-08-01T09:17:47;2.13;;;1.00;;
18090;SDS011;9172;49.948;9.208;2023-08-01T09:20:17;1.70;;;0.80;;
18090;SDS011;9172;49.948;9.208;2023-08-01T09:22:46;8.30;;;1.20;;
18090;SDS011;9172;49.948;9.208;2023-08-01T09:25:15;1.40;;;0.80;;
18090;SDS011;9172;49.948;9.208;2023-08-01T09:27:47;3.03;;;0.90;;
18090;SDS011;9172;49.948;9.208;2023-08-01T09:30:16;1.03;;;0.60;;
18090;SDS011;9172;49.948;9.208;2023-08-01T09:32:51;1.67;;;0.90;;
18090;SDS011;9172;49.948;9.208;2023-08-01T09:35:21;1.87;;;1.00;;
18090;SDS011;9172;49.948;9.208;2023-08-01T09:37:50;1.67;;;0.77;;
18090;SDS011;9172;49.948;9.208;2023-08-01T09:40:19;4.20;;;1.00;;
18090;SDS011;9172;49.948;9.208;2023-08-01T09:42:50;4.07;;;0.80;;
18090;SDS011;9172;49.948;9.208;2023-08-01T09:45:18;1.30;;;0.93;;
18090;SDS011;9172;49.948;9.208;2023-08-01T09:47:47;1.43;;;0.80;;
18090;SDS011;9172;49.948;9.208;2023-08-01T09:50:20;1.23;;;0.80;;
18090;SDS011;9172;49.948;9.208;2023-08-01T09:52:49;1.83;;;0.90;;
18090;SDS011;9172;49.948;9.208;2023-08-01T09:55:19;3.90;;;1.07;;
18090;SDS011;9172;49.948;9.208;2023-08-01T09:57:53;2.60;;;1.00;;
18090;SDS011;9172;49.948;9.208;2023-08-01T10:00:24;2.57;;;0.97;;
18090;SDS011;9172;49.948;9.208;2023-08-01T10:02:53;4.23;;;1.00;;
18090;SDS011;9172;49.948;9.208;2023-08-01T10:05:25;2.17;;;1.20;;
18090;SDS011;9172;49.948;9.208;2023-08-01T10:07:57;1.30;;;0.83;;
18090;SDS011;9172;49.948;9.208;2023-08-01T10:10:28;1.37;;;0.77;;
18090;SDS011;9172;49.948;9.208;2023-08-01T10:12:57;1.57;;;1.10;;
18090;SDS011;9172;49.948;9.208;2023-08-01T10:15:27;3.13;;;1.10;;
18090;SDS011;9172;49.948;9.208;2023-08-01T10:17:57;2.07;;;1.30;;
18090;SDS011;9172;49.948;9.208;2023-08-01T10:20:26;1.20;;;0.83;;
18090;SDS011;9172;49.948;9.208;2023-08-01T10:22:57;3.60;;;1.13;;
18090;SDS011;9172;49.948;9.208;2023-08-01T10:25:27;2.27;;;1.10;;
18090;SDS011;9172;49.948;9.208;2023-08-01T10:27:58;1.80;;;1.20;;
18090;SDS011;9172;49.948;9.208;2023-08-01T10:30:28;2.60;;;0.93;;
18090;SDS011;9172;49.948;9.208;2023-08-01T10:32:59;2.17;;;1.10;;
18090;SDS011;9172;49.948;9.208;2023-08-01T10:38:49;1.53;;;0.90;;
18090;SDS011;9172;49.948;9.208;2023-08-01T10:41:25;2.17;;;1.10;;
18090;SDS011;9172;49.948;9.208;2023-08-01T10:44:05;4.30;;;1.00;;
18090;SDS011;9172;49.948;9.208;2023-08-01T10:46:48;4.53;;;0.87;;
18090;SDS011;9172;49.948;9.208;2023-08-01T10:49:18;3.73;;;1.10;;
18090;SDS011;9172;49.948;9.208;2023-08-01T10:51:47;3.70;;;0.90;;
18090;SDS011;9172;49.948;9.208;2023-08-01T10:54:20;1.17;;;0.83;;
18090;SDS011;9172;49.948;9.208;2023-08-01T10:56:50;2.10;;;1.00;;
18090;SDS011;9172;49.948;9.208;2023-08-01T10:59:20;1.50;;;0.93;;
18090;SDS011;9172;49.948;9.208;2023-08-01T11:01:49;1.20;;;0.70;;
18090;SDS011;9172;49.948;9.208;2023-08-01T11:04:20;3.47;;;0.77;;
18090;SDS011;9172;49.948;9.208;2023-08-01T11:06:49;2.47;;;0.90;;
18090;SDS011;9172;49.948;9.208;2023-08-01T11:09:22;1.30;;;0.90;;
18090;SDS011;9172;49.948;9.208;2023-08-01T11:11:52;2.20;;;0.80;;
18090;SDS011;9172;49.948;9.208;2023-08-01T11:14:21;3.77;;;0.90;;
18090;SDS011;9172;49.948;9.208;2023-08-01T11:16:53;1.67;;;0.83;;
18090;SDS011;9172;49.948;9.208;2023-08-01T11:19:23;2.57;;;0.73;;
18090;SDS011;9172;49.948;9.208;2023-08-01T11:21:52;1.87;;;0.83;;
18090;SDS011;9172;49.948;9.208;2023-08-01T11:24:23;1.43;;;0.80;;
18090;SDS011;9172;49.948;9.208;2023-08-01T11:26:53;4.00;;;0.70;;
18090;SDS011;9172;49.948;9.208;2023-08-01T11:29:22;1.10;;;0.83;;
18090;SDS011;9172;49.948;9.208;2023-08-01T11:31:54;1.03;;;0.70;;
18090;SDS011;9172;49.948;9.208;2023-08-01T11:34:24;1.70;;;0.90;;
18090;SDS011;9172;49.948;9.208;2023-08-01T11:36:54;0.83;;;0.60;;
18090;SDS011;9172;49.948;9.208;2023-08-01T11:39:23;0.70;;;0.60;;
18090;SDS011;9172;49.948;9.208;2023-08-01T11:41:52;2.37;;;1.60;;
18090;SDS011;9172;49.948;9.208;2023-08-01T11:44:23;5.80;;;2.10;;
18090;SDS011;9172;49.948;9.208;2023-08-01T11:46:52;3.10;;;0.90;;
18090;SDS011;9172;49.948;9.208;2023-08-01T11:49:21;5.10;;;0.90;;
18090;SDS011;9172;49.948;9.208;2023-08-01T11:51:50;1.53;;;0.90;;
18090;SDS011;9172;49.948;9.208;2023-08-01T11:54:19;4.93;;;1.13;;
18090;SDS011;9172;49.948;9.208;2023-08-01T11:56:48;1.87;;;0.93;;
18090;SDS011;9172;49.948;9.208;2023-08-01T11:59:19;1.73;;;0.80;;
18090;SDS011;9172;49.948;9.208;2023-08-01T12:01:48;3.03;;;0.90;;
18090;SDS011;9172;49.948;9.208;2023-08-01T12:04:24;2.90;;;1.00;;
18090;SDS011;9172;49.948;9.208;2023-08-01T12:06:53;3.60;;;0.80;;
18090;SDS011;9172;49.948;9.208;2023-08-01T12:09:22;1.73;;;0.90;;
18090;SDS011;9172;49.948;9.208;2023-08-01T12:11:58;1.43;;;0.87;;
18090;SDS011;9172;49.948;9.208;2023-08-01T12:14:27;1.87;;;0.80;;
18090;SDS011;9172;49.948;9.208;2023-08-01T12:16:55;4.73;;;1.07;;
18090;SDS011;9172;49.948;9.208;2023-08-01T12:19:25;1.53;;;0.70;;
18090;SDS011;9172;49.948;9.208;2023-08-01T12:21:53;1.33;;;0.80;;
18090;SDS011;9172;49.948;9.208;2023-08-01T12:24:22;1.07;;;0.60;;
18090;SDS011;9172;49.948;9.208;2023-08-01T12:26:51;3.43;;;0.80;;
18090;SDS011;9172;49.948;9.208;2023-08-01T12:29:21;1.37;;;0.70;;
18090;SDS011;9172;49.948;9.208;2023-08-01T12:31:50;4.33;;;1.07;;
18090;SDS011;9172;49.948;9.208;2023-08-01T12:34:20;3.13;;;0.90;;
18090;SDS011;9172;49.948;9.208;2023-08-01T12:36:49;1.90;;;0.93;;
18090;SDS011;9172;49.948;9.208;2023-08-01T12:39:18;4.43;;;1.10;;
18090;SDS011;9172;49.948;9.208;2023-08-01T12:41:48;4.23;;;0.80;;
18090;SDS011;9172;49.948;9.208;2023-08-01T12:44:17;1.00;;;0.70;;
18090;SDS011;9172;49.948;9.208;2023-08-01T12:46:46;2.13;;;0.87;;
18090;SDS011;9172;49.948;9.208;2023-08-01T12:49:15;1.63;;;0.80;;
18090;SDS011;9172;49.948;9.208;2023-08-01T12:51:45;2.17;;;1.00;;
18090;SDS011;9172;49.948;9.208;2023-08-01T12:54:15;2.23;;;0.80;;
18090;SDS011;9172;49.948;9.208;2023-08-01T12:56:43;3.40;;;0.67;;
18090;SDS011;9172;49.948;9.208;2023-08-01T12:59:13;2.60;;;0.60;;
18090;SDS011;9172;49.948;9.208;2023-08-01T13:01:42;1.40;;;0.73;;
18090;SDS011;9172;49.948;9.208;2023-08-01T13:04:11;2.67;;;0.73;;
18090;SDS011;9172;49.948;9.208;2023-08-01T13:06:39;2.00;;;1.13;;
18090;SDS011;9172;49.948;9.208;2023-08-01T13:09:08;1.23;;;0.60;;
18090;SDS011;9172;49.948;9.208;2023-08-01T13:11:39;1.47;;;0.60;;
18090;SDS011;9172;49.948;9.208;2023-08-01T13:14:09;2.80;;;1.20;;
18090;SDS011;9172;49.948;9.208;2023-08-01T13:16:38;3.67;;;0.90;;
18090;SDS011;9172;49.948;9.208;2023-08-01T13:19:08;2.10;;;0.70;;
18090;SDS011;9172;49.948;9.208;2023-08-01T13:21:37;2.63;;;0.80;;
18090;SDS011;9172;49.948;9.208;2023-08-01T13:24:06;2.10;;;0.70;;
18090;SDS011;9172;49.948;9.208;2023-08-01T13:26:36;3.20;;;0.80;;
18090;SDS011;9172;49.948;9.208;2023-08-01T13:29:06;3.10;;;0.80;;
18090;SDS011;9172;49.948;9.208;2023-08-01T13:31:35;1.23;;;0.53;;
18090;SDS011;9172;49.948;9.208;2023-08-01T13:34:05;1.73;;;0.93;;
18090;SDS011;9172;49.948;9.208;2023-08-01T13:36:35;5.77;;;0.93;;
18090;SDS011;9172;49.948;9.208;2023-08-01T13:39:04;6.93;;;0.93;;
18090;SDS011;9172;49.948;9.208;2023-08-01T13:41:33;1.90;;;1.00;;
18090;SDS011;9172;49.948;9.208;2023-08-01T13:44:02;3.33;;;0.80;;
18090;SDS011;9172;49.948;9.208;2023-08-01T13:46:31;2.47;;;0.83;;
18090;SDS011;9172;49.948;9.208;2023-08-01T13:49:00;2.03;;;0.80;;
18090;SDS011;9172;49.948;9.208;2023-08-01T13:51:31;2.40;;;0.70;;
18090;SDS011;9172;49.948;9.208;2023-08-01T13:54:00;1.73;;;0.77;;
18090;SDS011;9172;49.948;9.208;2023-08-01T13:56:31;3.73;;;1.20;;
18090;SDS011;9172;49.948;9.208;2023-08-01T13:59:00;3.13;;;1.10;;
18090;SDS011;9172;49.948;9.208;2023-08-01T14:01:29;2.37;;;0.93;;
18090;SDS011;9172;49.948;9.208;2023-08-01T14:03:59;6.23;;;1.07;;
18090;SDS011;9172;49.948;9.208;2023-08-01T14:06:28;3.40;;;1.20;;
18090;SDS011;9172;49.948;9.208;2023-08-01T14:08:57;4.17;;;1.03;;
18090;SDS011;9172;49.948;9.208;2023-08-01T14:11:26;2.90;;;0.90;;
18090;SDS011;9172;49.948;9.208;2023-08-01T14:13:56;3.50;;;1.20;;
18090;SDS011;9172;49.948;9.208;2023-08-01T14:16:26;2.43;;;0.93;;
18090;SDS011;9172;49.948;9.208;2023-08-01T14:18:55;3.77;;;1.47;;
18090;SDS011;9172;49.948;9.208;2023-08-01T14:21:26;1.67;;;0.80;;
18090;SDS011;9172;49.948;9.208;2023-08-01T14:23:54;2.10;;;1.10;;
18090;SDS011;9172;49.948;9.208;2023-08-01T14:26:24;2.80;;;0.80;;
18090;SDS011;9172;49.948;9.208;2023-08-01T14:28:54;2.67;;;0.87;;
18090;SDS011;9172;49.948;9.208;2023-08-01T14:31:23;2.50;;;0.90;;
18090;SDS011;9172;49.948;9.208;2023-08-01T14:33:52;3.67;;;1.00;;
18090;SDS011;9172;49.948;9.208;2023-08-01T14:36:21;5.23;;;0.80;;
18090;SDS011;9172;49.948;9.208;2023-08-01T14:38:49;2.50;;;0.93;;
18090;SDS011;9172;49.948;9.208;2023-08-01T14:41:20;1.80;;;0.90;;
18090;SDS011;9172;49.948;9.208;2023-08-01T14:43:49;2.70;;;0.70;;
18090;SDS011;9172;49.948;9.208;2023-08-01T14:46:19;6.07;;;0.77;;
18090;SDS011;9172;49.948;9.208;2023-08-01T14:48:47;3.60;;;0.93;;
18090;SDS011;9172;49.948;9.208;2023-08-01T14:51:17;2.50;;;0.83;;
18090;SDS011;9172;49.948;9.208;2023-08-01T14:53:46;2.27;;;0.93;;
18090;SDS011;9172;49.948;9.208;2023-08-01T14:56:15;3.70;;;1.30;;
18090;SDS011;9172;49.948;9.208;2023-08-01T14:58:44;3.53;;;1.37;;
18090;SDS011;9172;49.948;9.208;2023-08-01T15:01:13;4.20;;;1.40;;
18090;SDS011;9172;49.948;9.208;2023-08-01T15:03:42;3.77;;;1.43;;
18090;SDS011;9172;49.948;9.208;2023-08-01T15:06:11;2.37;;;1.00;;
18090;SDS011;9172;49.948;9.208;2023-08-01T15:08:41;4.23;;;1.00;;
18090;SDS011;9172;49.948;9.208;2023-08-01T15:11:10;4.30;;;1.17;;
18090;SDS011;9172;49.948;9.208;2023-08-01T15:13:38;5.27;;;1.00;;
18090;SDS011;9172;49.948;9.208;2023-08-01T15:16:09;4.37;;;0.93;;
18090;SDS011;9172;49.948;9.208;2023-08-01T15:18:38;5.03;;;1.10;;
18090;SDS011;9172;49.948;9.208;2023-08-01T15:21:08;3.67;;;1.00;;
18090;SDS011;9172;49.948;9.208;2023-08-01T15:23:36;2.33;;;0.80;;
18090;SDS011;9172;49.948;9.208;2023-08-01T15:26:06;3.00;;;1.17;;
18090;SDS011;9172;49.948;9.208;2023-08-01T15:28:35;2.23;;;1.00;;
18090;SDS011;9172;49.948;9.208;2023-08-01T15:31:04;4.50;;;0.93;;
18090;SDS011;9172;49.948;9.208;2023-08-01T15:33:35;3.60;;;1.20;;
18090;SDS011;9172;49.948;9.208;2023-08-01T15:36:06;4.20;;;1.03;;
18090;SDS011;9172;49.948;9.208;2023-08-01T15:38:35;3.60;;;1.00;;
18090;SDS011;9172;49.948;9.208;2023-08-01T15:41:05;2.27;;;0.90;;
18090;SDS011;9172;49.948;9.208;2023-08-01T15:43:34;3.73;;;1.27;;
18090;SDS011;9172;49.948;9.208;2023-08-01T15:46:04;2.40;;;1.10;;
18090;SDS011;9172;49.948;9.208;2023-08-01T15:48:34;2.20;;;0.87;;
18090;SDS011;9172;49.948;9.208;2023-08-01T15:51:04;5.27;;;1.40;;